Time;durP1;ratioP1;P1;durP2;ratioP2;P2;SDS_P1;SDS_P2;PMS_P1;PMS_P2;Temp;Humidity;BMP_temperature;BMP_pressure;BME280_temperature;BME280_humidity;BME280_pressure;Samples;Min_cycle;Max_cycle;Signal;HPM_P1;HPM_P2
2023/07/04 00:00:23;;;;;;;8.38;2.63;;;17.20;99.90;;;;;;5092363;28;20653;-51
2023/07/04 00:02:51;;;;;;;8.23;2.90;;;17.20;99.90;;;;;;5092341;28;20177;-51
2023/07/04 00:05:17;;;;;;;9.77;2.83;;;17.20;99.90;;;;;;5091318;28;20173;-51
2023/07/04 00:07:43;;;;;;;9.82;3.08;;;17.20;99.90;;;;;;5091434;28;20552;-51
2023/07/04 00:10:09;;;;;;;6.60;2.25;;;17.10;99.90;;;;;;5091710;28;20212;-51
2023/07/04 00:12:34;;;;;;;8.60;2.83;;;17.10;99.90;;;;;;5091848;28;20172;-51
2023/07/04 00:15:00;;;;;;;11.63;3.40;;;17.10;99.90;;;;;;5091789;28;20619;-51
2023/07/04 00:17:26;;;;;;;7.20;2.55;;;17.10;99.90;;;;;;5091682;28;20209;-51
2023/07/04 00:19:52;;;;;;;9.93;2.35;;;17.10;99.90;;;;;;5092201;28;20218;-51
2023/07/04 00:22:17;;;;;;;10.77;3.42;;;17.10;99.90;;;;;;5091761;28;20169;-56
2023/07/04 00:24:44;;;;;;;8.90;3.22;;;17.10;99.90;;;;;;5091629;28;20315;-51
2023/07/04 00:27:12;;;;;;;10.57;3.08;;;17.10;99.90;;;;;;5091689;28;20256;-51
2023/07/04 00:29:38;;;;;;;9.05;2.78;;;17.00;99.90;;;;;;5091930;28;20184;-51
2023/07/04 00:32:05;;;;;;;8.23;2.63;;;17.00;99.90;;;;;;5091641;28;20161;-51
2023/07/04 00:34:31;;;;;;;10.15;3.30;;;16.90;99.90;;;;;;5091485;28;20173;-51
2023/07/04 00:36:59;;;;;;;11.15;3.40;;;16.90;99.90;;;;;;5091750;28;20212;-51
2023/07/04 00:39:26;;;;;;;9.48;3.03;;;16.90;99.90;;;;;;5091801;28;20171;-51
2023/07/04 00:41:51;;;;;;;8.70;2.90;;;16.80;99.90;;;;;;5073781;28;20254;-51
2023/07/04 00:44:23;;;;;;;10.57;2.75;;;16.80;99.90;;;;;;5091480;28;20201;-51
2023/07/04 00:47:10;;;;;;;7.95;2.78;;;16.70;99.90;;;;;;5091826;28;20637;-51
2023/07/04 00:49:42;;;;;;;6.90;2.42;;;16.70;99.90;;;;;;5091733;28;20172;-51
2023/07/04 00:52:16;;;;;;;8.20;3.10;;;16.70;99.90;;;;;;5091476;28;20558;-51
2023/07/04 00:54:44;;;;;;;14.25;3.40;;;16.60;99.90;;;;;;5091411;28;20240;-51
2023/07/04 00:57:12;;;;;;;9.13;3.08;;;16.60;99.90;;;;;;5091287;28;20197;-51
2023/07/04 00:59:43;;;;;;;9.85;3.60;;;16.50;99.90;;;;;;5091614;28;20180;-51
2023/07/04 01:02:11;;;;;;;7.55;2.42;;;16.40;99.90;;;;;;5091609;28;20208;-51
2023/07/04 01:04:37;;;;;;;14.30;3.05;;;16.40;99.90;;;;;;5091510;28;20193;-51
2023/07/04 01:07:31;;;;;;;9.52;3.38;;;16.30;99.90;;;;;;5073194;28;20637;-51
2023/07/04 01:10:07;;;;;;;9.40;2.90;;;16.40;99.90;;;;;;5073649;28;20220;-51
2023/07/04 01:12:34;;;;;;;14.80;3.47;;;16.30;99.90;;;;;;5091268;28;20648;-51
2023/07/04 01:15:00;;;;;;;10.30;2.80;;;16.30;99.90;;;;;;5091145;28;20621;-51
2023/07/04 01:17:25;;;;;;;8.68;3.25;;;16.20;99.90;;;;;;5094403;28;20201;-51
2023/07/04 01:19:51;;;;;;;6.38;2.88;;;16.10;99.90;;;;;;5095428;28;20187;-51
2023/07/04 01:22:33;;;;;;;7.60;2.70;;;16.10;99.90;;;;;;5095263;28;20260;-51
2023/07/04 01:25:11;;;;;;;11.02;3.30;;;16.10;99.90;;;;;;5095221;28;20169;-51
2023/07/04 01:27:37;;;;;;;10.43;3.40;;;16.10;99.90;;;;;;5094984;28;20157;-51
2023/07/04 01:30:05;;;;;;;9.98;2.95;;;16.10;99.90;;;;;;5094834;28;20171;-51
2023/07/04 01:32:34;;;;;;;12.13;2.92;;;16.00;99.90;;;;;;5094861;28;20174;-51
2023/07/04 01:35:00;;;;;;;10.95;3.60;;;16.00;99.90;;;;;;5076726;28;20655;-52
2023/07/04 01:37:30;;;;;;;9.88;3.17;;;16.00;99.90;;;;;;5094803;28;20213;-51
2023/07/04 01:39:59;;;;;;;13.13;2.90;;;15.90;99.90;;;;;;5094765;28;20161;-51
2023/07/04 01:42:31;;;;;;;9.95;3.20;;;15.90;99.90;;;;;;5094799;28;20158;-51
2023/07/04 01:45:01;;;;;;;13.18;4.03;;;15.80;99.90;;;;;;5094812;28;20177;-51
2023/07/04 01:47:28;;;;;;;8.40;2.72;;;15.80;99.90;;;;;;5094760;28;20166;-51
2023/07/04 01:49:54;;;;;;;12.00;3.40;;;15.80;99.90;;;;;;5094724;28;20170;-51
2023/07/04 01:52:20;;;;;;;10.82;2.80;;;15.80;99.90;;;;;;5094929;28;20162;-51
2023/07/04 01:54:45;;;;;;;10.13;3.90;;;15.80;99.90;;;;;;5094383;28;20270;-51
2023/07/04 01:57:11;;;;;;;10.15;3.63;;;15.80;99.90;;;;;;5094286;28;20207;-51
2023/07/04 01:59:37;;;;;;;10.93;3.03;;;15.80;99.90;;;;;;5094621;28;20165;-51
2023/07/04 02:02:03;;;;;;;12.80;3.35;;;15.70;99.90;;;;;;5094493;28;20200;-51
2023/07/04 02:04:29;;;;;;;10.73;2.75;;;15.70;99.90;;;;;;5094169;28;20268;-51
2023/07/04 02:06:54;;;;;;;10.75;3.50;;;15.70;99.90;;;;;;5094169;28;20215;-51
2023/07/04 02:09:20;;;;;;;16.92;3.70;;;15.70;99.90;;;;;;5094420;28;20220;-52
2023/07/04 02:11:46;;;;;;;11.63;2.60;;;15.60;99.90;;;;;;5094117;28;20185;-51
2023/07/04 02:14:14;;;;;;;9.73;3.38;;;15.70;99.90;;;;;;5094017;28;20223;-51
2023/07/04 02:16:40;;;;;;;11.75;3.38;;;15.60;99.90;;;;;;5093976;28;20299;-51
2023/07/04 02:19:05;;;;;;;15.65;3.17;;;15.50;99.90;;;;;;5094153;28;20240;-52
2023/07/04 02:21:31;;;;;;;10.55;3.03;;;15.60;99.90;;;;;;5093880;28;20256;-51
2023/07/04 02:23:56;;;;;;;11.93;4.20;;;15.60;99.90;;;;;;5093774;28;20165;-51
2023/07/04 02:26:22;;;;;;;14.98;3.20;;;15.60;99.90;;;;;;5094080;28;20169;-51
2023/07/04 02:28:48;;;;;;;10.27;2.85;;;15.50;99.90;;;;;;5093561;28;20170;-51
2023/07/04 02:31:14;;;;;;;9.48;3.05;;;15.50;99.90;;;;;;5093922;28;20169;-51
2023/07/04 02:33:40;;;;;;;13.43;3.42;;;15.50;99.90;;;;;;5093525;28;20532;-51
2023/07/04 02:36:11;;;;;;;12.10;2.80;;;15.50;99.90;;;;;;5093538;28;20161;-51
2023/07/04 02:38:38;;;;;;;12.10;3.28;;;15.50;99.90;;;;;;5093780;28;20176;-51
2023/07/04 02:41:04;;;;;;;12.40;4.22;;;15.40;99.90;;;;;;5093740;28;20242;-51
2023/07/04 02:43:30;;;;;;;9.27;3.30;;;15.40;99.90;;;;;;5093706;28;20185;-51
2023/07/04 02:45:55;;;;;;;12.43;3.53;;;15.40;99.90;;;;;;5093352;28;20169;-51
2023/07/04 02:48:21;;;;;;;11.30;4.22;;;15.40;99.90;;;;;;5093812;28;20174;-51
2023/07/04 02:50:46;;;;;;;11.65;3.28;;;15.40;99.90;;;;;;5093308;28;20240;-51
2023/07/04 02:53:12;;;;;;;16.77;3.53;;;15.40;99.90;;;;;;5093259;28;20170;-51
2023/07/04 02:55:38;;;;;;;12.35;3.75;;;15.30;99.90;;;;;;5093439;28;20256;-51
2023/07/04 02:58:03;;;;;;;12.15;2.70;;;15.30;99.90;;;;;;5093052;28;20209;-51
2023/07/04 03:00:29;;;;;;;12.77;3.35;;;15.20;99.90;;;;;;5093400;28;20173;-51
2023/07/04 03:02:56;;;;;;;11.05;3.40;;;15.30;99.90;;;;;;5093132;28;20177;-51
2023/07/04 03:05:22;;;;;;;18.58;3.13;;;15.30;99.90;;;;;;5074928;28;20169;-51
2023/07/04 03:07:47;;;;;;;13.57;3.03;;;15.30;99.90;;;;;;5093334;28;20628;-51
2023/07/04 03:10:13;;;;;;;12.15;3.13;;;15.20;99.90;;;;;;5092768;28;20216;-51
2023/07/04 03:12:39;;;;;;;7.78;3.22;;;15.20;99.90;;;;;;5093068;28;20170;-51
2023/07/04 03:15:06;;;;;;;9.95;3.38;;;15.20;99.90;;;;;;5092786;28;20158;-51
2023/07/04 03:17:32;;;;;;;11.27;3.42;;;15.10;99.90;;;;;;5093028;28;20338;-51
2023/07/04 03:19:57;;;;;;;12.70;3.38;;;15.10;99.90;;;;;;5092780;28;20218;-51
2023/07/04 03:22:23;;;;;;;15.13;3.53;;;15.10;99.90;;;;;;5092683;28;20196;-51
2023/07/04 03:24:48;;;;;;;7.90;2.78;;;15.10;99.90;;;;;;5093021;28;20173;-51
2023/07/04 03:27:14;;;;;;;13.35;3.70;;;15.10;99.90;;;;;;5092549;28;20166;-51
2023/07/04 03:29:40;;;;;;;5.78;3.05;;;15.10;99.90;;;;;;5074330;28;20173;-51
2023/07/04 03:32:05;;;;;;;14.05;3.58;;;15.10;99.90;;;;;;5092430;28;20166;-51
2023/07/04 03:34:31;;;;;;;8.02;3.30;;;15.10;99.90;;;;;;5092383;28;20161;-51
2023/07/04 03:36:57;;;;;;;8.45;3.78;;;15.00;99.90;;;;;;5092283;28;20254;-51
2023/07/04 03:39:22;;;;;;;14.18;3.05;;;15.00;99.90;;;;;;5091179;28;20169;-51
2023/07/04 03:41:48;;;;;;;10.80;3.63;;;15.10;99.90;;;;;;5092660;28;20571;-51
2023/07/04 03:44:13;;;;;;;12.75;3.65;;;15.10;99.90;;;;;;5092475;28;20633;-51
2023/07/04 03:46:39;;;;;;;12.40;3.30;;;15.10;99.90;;;;;;5092155;28;20244;-51
2023/07/04 03:49:04;;;;;;;11.02;3.72;;;15.10;99.90;;;;;;5092495;28;20173;-51
2023/07/04 03:51:30;;;;;;;13.55;3.80;;;15.10;99.90;;;;;;5092190;28;20520;-51
2023/07/04 03:53:55;;;;;;;8.32;3.08;;;15.10;99.90;;;;;;5092121;28;20194;-51
2023/07/04 03:56:21;;;;;;;17.25;3.22;;;15.10;99.90;;;;;;5092356;28;20192;-51
2023/07/04 03:58:46;;;;;;;15.05;3.28;;;15.10;99.90;;;;;;5092123;28;20218;-50
2023/07/04 04:01:12;;;;;;;17.08;3.60;;;15.20;99.90;;;;;;5091948;28;20177;-50
2023/07/04 04:03:38;;;;;;;14.30;3.78;;;15.20;99.90;;;;;;5091926;28;20165;-50
2023/07/04 04:06:06;;;;;;;13.30;3.80;;;15.20;99.90;;;;;;5091895;28;20161;-51
2023/07/04 04:08:31;;;;;;;12.80;3.70;;;15.20;99.90;;;;;;5092012;28;20636;-51
2023/07/04 04:10:57;;;;;;;8.07;2.90;;;15.30;99.90;;;;;;5073507;28;20217;-51
2023/07/04 04:13:23;;;;;;;12.45;3.20;;;15.20;99.90;;;;;;5091836;28;20589;-51
2023/07/04 04:15:50;;;;;;;15.02;3.10;;;15.20;99.90;;;;;;5092195;28;20165;-51
2023/07/04 04:18:15;;;;;;;15.18;4.10;;;15.20;99.90;;;;;;5091947;28;20204;-51
2023/07/04 04:20:41;;;;;;;10.73;3.25;;;15.10;99.90;;;;;;5091692;28;20176;-51
2023/07/04 04:23:06;;;;;;;11.15;3.88;;;15.20;99.90;;;;;;5091651;28;20169;-51
2023/07/04 04:25:37;;;;;;;15.15;4.22;;;15.20;99.90;;;;;;5091550;28;20168;-51
2023/07/04 04:28:06;;;;;;;12.80;3.80;;;15.20;99.90;;;;;;5074315;28;20593;-51
2023/07/04 04:30:32;;;;;;;14.25;3.70;;;15.20;99.90;;;;;;5091575;28;20169;-51
2023/07/04 04:32:57;;;;;;;13.70;3.33;;;15.40;99.90;;;;;;5091491;28;20165;-51
2023/07/04 04:35:25;;;;;;;17.25;4.22;;;15.30;99.90;;;;;;5091496;28;20173;-51
2023/07/04 04:37:51;;;;;;;13.70;3.78;;;15.30;99.90;;;;;;5091779;28;20196;-51
2023/07/04 04:40:16;;;;;;;10.27;3.55;;;15.30;99.90;;;;;;5091587;28;20172;-51
2023/07/04 04:42:43;;;;;;;12.50;3.70;;;15.40;99.90;;;;;;5073482;28;20509;-51
2023/07/04 04:45:11;;;;;;;12.23;4.00;;;15.40;99.90;;;;;;5091706;28;20197;-51
2023/07/04 04:47:39;;;;;;;10.80;3.03;;;15.40;99.90;;;;;;5091776;28;20210;-51
2023/07/04 04:50:05;;;;;;;16.42;4.63;;;15.50;99.90;;;;;;5091738;28;20184;-51
2023/07/04 04:52:31;;;;;;;13.52;3.92;;;15.60;99.90;;;;;;5095057;28;20629;-51
2023/07/04 04:54:58;;;;;;;11.02;3.38;;;15.70;99.90;;;;;;5095612;28;20211;-51
2023/07/04 04:57:24;;;;;;;17.10;4.55;;;15.80;99.90;;;;;;5095458;28;20207;-51
2023/07/04 04:59:52;;;;;;;13.25;4.03;;;15.80;99.90;;;;;;5096044;28;20166;-50
2023/07/04 05:02:18;;;;;;;11.90;3.25;;;16.90;99.90;;;;;;5077618;28;20256;-51
2023/07/04 05:04:43;;;;;;;9.38;3.40;;;16.00;99.90;;;;;;5095574;28;20257;-51
2023/07/04 05:07:09;;;;;;;13.13;3.83;;;16.00;99.90;;;;;;5095311;28;20176;-51
2023/07/04 05:09:35;;;;;;;17.73;4.15;;;16.20;99.90;;;;;;5095017;28;20240;-51
2023/07/04 05:12:01;;;;;;;8.32;3.10;;;16.10;99.90;;;;;;5095182;28;20174;-52
2023/07/04 05:14:28;;;;;;;12.98;4.10;;;16.10;99.90;;;;;;5095254;28;20237;-51
2023/07/04 05:16:53;;;;;;;16.38;4.10;;;16.10;99.90;;;;;;5095047;28;20405;-51
2023/07/04 05:19:19;;;;;;;14.65;3.65;;;16.30;99.90;;;;;;5095747;28;20169;-51
2023/07/04 05:21:48;;;;;;;11.50;3.53;;;16.30;99.90;;;;;;5095034;28;20189;-51
2023/07/04 05:24:14;;;;;;;10.55;3.80;;;16.40;99.90;;;;;;5095257;28;20162;-51
2023/07/04 05:26:40;;;;;;;14.55;3.92;;;16.40;99.90;;;;;;5094905;28;20189;-51
2023/07/04 05:29:08;;;;;;;9.57;3.83;;;16.40;99.90;;;;;;5094987;28;20211;-51
2023/07/04 05:31:34;;;;;;;10.70;3.10;;;16.50;99.90;;;;;;5095138;28;20260;-51
2023/07/04 05:34:00;;;;;;;9.30;2.97;;;16.40;99.90;;;;;;5094829;28;20177;-51
2023/07/04 05:36:28;;;;;;;11.40;3.80;;;16.40;99.90;;;;;;5094584;28;20284;-51
2023/07/04 05:38:56;;;;;;;13.38;3.67;;;16.40;99.90;;;;;;5094886;28;20169;-51
2023/07/04 05:41:25;;;;;;;15.93;3.75;;;16.60;99.90;;;;;;5094660;28;20185;-51
2023/07/04 05:43:51;;;;;;;13.20;3.33;;;16.60;99.90;;;;;;5095211;28;20194;-51
2023/07/04 05:46:18;;;;;;;18.25;3.70;;;16.60;99.90;;;;;;5094995;28;20248;-51
2023/07/04 05:48:43;;;;;;;14.73;3.88;;;16.60;99.90;;;;;;5094480;28;20692;-51
2023/07/04 05:51:13;;;;;;;12.80;3.15;;;16.70;99.90;;;;;;5076310;28;20204;-51
2023/07/04 05:53:43;;;;;;;14.20;3.75;;;16.80;99.90;;;;;;5094354;28;20169;-51
2023/07/04 05:56:17;;;;;;;13.10;3.63;;;16.90;99.90;;;;;;5094281;28;20161;-51
2023/07/04 05:58:45;;;;;;;9.52;3.28;;;16.90;99.90;;;;;;5094397;28;20167;-51
2023/07/04 06:01:22;;;;;;;11.35;3.25;;;16.90;99.90;;;;;;5094223;28;20170;-51
2023/07/04 06:03:48;;;;;;;11.32;3.90;;;16.90;99.90;;;;;;5093449;28;20165;-51
2023/07/04 06:06:27;;;;;;;12.75;3.90;;;16.90;99.90;;;;;;5094399;28;20246;-51
2023/07/04 06:08:54;;;;;;;15.65;3.83;;;17.00;99.90;;;;;;5094433;28;20221;-51
2023/07/04 06:11:21;;;;;;;13.30;3.17;;;17.00;99.90;;;;;;5094234;28;20241;-51
2023/07/04 06:13:46;;;;;;;14.23;3.70;;;17.10;99.90;;;;;;5094431;28;20173;-51
2023/07/04 06:16:12;;;;;;;11.82;3.72;;;17.00;99.90;;;;;;5093930;28;20169;-51
2023/07/04 06:18:39;;;;;;;10.27;3.20;;;17.10;99.90;;;;;;5093944;28;20183;-51
2023/07/04 06:21:09;;;;;;;11.32;3.33;;;17.10;99.90;;;;;;5094192;28;20258;-51
2023/07/04 06:23:35;;;;;;;16.38;3.95;;;17.20;99.90;;;;;;5093904;28;20604;-51
2023/07/04 06:26:01;;;;;;;8.82;3.30;;;17.30;99.90;;;;;;5093848;28;20243;-51
2023/07/04 06:28:27;;;;;;;12.50;3.90;;;17.30;99.90;;;;;;5093774;28;20215;-51
2023/07/04 06:30:52;;;;;;;13.98;3.78;;;17.50;99.90;;;;;;5093766;28;20170;-51
2023/07/04 06:33:18;;;;;;;12.48;3.50;;;17.80;99.90;;;;;;5094062;28;20224;-51
2023/07/04 06:35:44;;;;;;;13.63;3.88;;;17.90;99.90;;;;;;5093552;28;20173;-51
2023/07/04 06:38:09;;;;;;;12.45;3.35;;;17.90;99.90;;;;;;5093434;28;20578;-51
2023/07/04 06:40:35;;;;;;;10.00;3.70;;;17.90;99.90;;;;;;5093499;28;20161;-51
2023/07/04 06:43:03;;;;;;;17.42;3.90;;;17.90;99.90;;;;;;5093497;28;20165;-51
2023/07/04 06:45:30;;;;;;;13.80;4.13;;;18.00;99.90;;;;;;5093629;28;20169;-51
2023/07/04 06:47:56;;;;;;;16.20;4.47;;;18.00;99.90;;;;;;5093623;28;20165;-51
2023/07/04 06:50:22;;;;;;;11.93;4.00;;;18.00;99.90;;;;;;5093392;28;20181;-51
2023/07/04 06:52:47;;;;;;;9.55;3.35;;;18.10;99.90;;;;;;5093917;28;20205;-54
2023/07/04 06:55:13;;;;;;;16.40;3.88;;;18.00;99.90;;;;;;5093302;28;20169;-52
2023/07/04 06:57:38;;;;;;;13.45;3.53;;;17.90;99.90;;;;;;5093066;28;20236;-51
2023/07/04 07:00:05;;;;;;;12.07;4.53;;;17.90;99.90;;;;;;5093262;28;20196;-51
2023/07/04 07:02:31;;;;;;;12.88;3.35;;;17.90;99.90;;;;;;5093192;28;20172;-51
2023/07/04 07:04:56;;;;;;;11.13;4.07;;;18.00;99.90;;;;;;5093324;28;20176;-51
2023/07/04 07:07:22;;;;;;;16.00;4.13;;;18.20;99.90;;;;;;5093001;28;20196;-51
2023/07/04 07:09:48;;;;;;;13.63;3.45;;;18.20;99.90;;;;;;5074961;28;20735;-51
2023/07/04 07:12:14;;;;;;;13.07;4.57;;;18.30;99.90;;;;;;5092858;28;20165;-51
2023/07/04 07:14:39;;;;;;;21.00;4.00;;;18.60;99.90;;;;;;5092700;28;20168;-51
2023/07/04 07:17:06;;;;;;;11.38;3.83;;;18.60;99.90;;;;;;5092869;28;20241;-51
2023/07/04 07:19:32;;;;;;;10.88;3.20;;;18.60;99.90;;;;;;5092807;28;20587;-51
2023/07/04 07:22:00;;;;;;;12.98;3.90;;;18.40;99.90;;;;;;5092700;28;20172;-51
2023/07/04 07:24:29;;;;;;;10.05;3.40;;;18.50;99.90;;;;;;5092732;28;20157;-51
2023/07/04 07:26:58;;;;;;;14.07;3.78;;;18.60;99.90;;;;;;5092701;28;20193;-51
2023/07/04 07:29:26;;;;;;;14.30;3.60;;;18.60;99.90;;;;;;5092604;28;20191;-51
2023/07/04 07:31:51;;;;;;;15.38;3.67;;;18.90;99.90;;;;;;5092465;28;20717;-51
2023/07/04 07:34:18;;;;;;;18.08;3.72;;;18.90;99.90;;;;;;5092957;28;20165;-51
2023/07/04 07:36:45;;;;;;;11.80;3.70;;;18.80;99.90;;;;;;5092613;28;20220;-51
2023/07/04 07:39:13;;;;;;;10.02;3.00;;;18.70;99.90;;;;;;5092401;28;20244;-51
2023/07/04 07:41:41;;;;;;;14.60;3.65;;;18.80;99.90;;;;;;5092510;28;20180;-51
2023/07/04 07:44:08;;;;;;;12.18;3.63;;;18.80;99.90;;;;;;5092304;28;20273;-51
2023/07/04 07:46:34;;;;;;;14.88;3.58;;;19.10;99.90;;;;;;5092271;28;20617;-51
2023/07/04 07:49:00;;;;;;;11.35;3.45;;;18.90;99.90;;;;;;5092471;28;20181;-51
2023/07/04 07:51:27;;;;;;;10.30;3.50;;;18.90;99.90;;;;;;5092131;28;20629;-51
2023/07/04 07:53:54;;;;;;;10.77;3.10;;;18.80;99.90;;;;;;5073922;28;20517;-51
2023/07/04 07:56:21;;;;;;;11.73;2.85;;;18.80;99.90;;;;;;5092616;28;20244;-51
2023/07/04 07:58:48;;;;;;;11.63;3.92;;;18.90;99.90;;;;;;5092504;28;20510;-51
2023/07/04 08:01:26;;;;;;;12.43;3.55;;;19.10;99.90;;;;;;5091967;28;20173;-51
2023/07/04 08:03:52;;;;;;;10.63;3.50;;;19.30;99.90;;;;;;5091891;28;20165;-51
2023/07/04 08:06:36;;;;;;;13.13;3.33;;;19.80;99.90;;;;;;5092481;28;20180;-51
2023/07/04 08:09:03;;;;;;;13.88;3.15;;;19.40;99.90;;;;;;5091719;28;20161;-51
2023/07/04 08:11:30;;;;;;;8.52;3.05;;;19.00;99.90;;;;;;5091932;28;20173;-51
2023/07/04 08:13:56;;;;;;;10.68;3.05;;;19.10;99.90;;;;;;5091773;28;20180;-51
2023/07/04 08:16:26;;;;;;;13.38;3.10;;;19.30;99.90;;;;;;5073494;28;20569;-51
2023/07/04 08:18:52;;;;;;;11.15;3.55;;;19.50;99.90;;;;;;5091750;28;20161;-51
2023/07/04 08:21:17;;;;;;;11.88;3.40;;;19.80;99.90;;;;;;5092302;28;20167;-51
2023/07/04 08:23:43;;;;;;;9.73;3.45;;;20.10;99.90;;;;;;5091768;28;20165;-51
2023/07/04 08:26:20;;;;;;;13.38;3.80;;;20.00;99.90;;;;;;5091147;28;20229;-51
2023/07/04 08:28:46;;;;;;;7.88;2.80;;;19.70;99.90;;;;;;5092081;28;20165;-51
2023/07/04 08:31:12;;;;;;;15.75;3.53;;;19.70;99.90;;;;;;5091929;28;20234;-51
2023/07/04 08:33:38;;;;;;;10.73;2.70;;;19.50;99.90;;;;;;5091884;28;20581;-51
2023/07/04 08:36:06;;;;;;;11.82;3.38;;;19.40;99.90;;;;;;5091592;28;20625;-51
2023/07/04 08:38:32;;;;;;;12.52;4.22;;;19.80;99.90;;;;;;5091544;28;20173;-51
2023/07/04 08:40:57;;;;;;;8.05;2.95;;;20.40;99.90;;;;;;5091540;28;20172;-51
2023/07/04 08:43:56;;;;;;;9.68;2.80;;;20.40;99.90;;;;;;5091540;28;20569;-51
2023/07/04 08:46:22;;;;;;;13.52;3.00;;;20.40;99.90;;;;;;5091783;28;20173;-51
2023/07/04 08:48:48;;;;;;;8.23;2.78;;;20.40;99.90;;;;;;5091837;28;20164;-51
2023/07/04 08:51:30;;;;;;;8.68;2.92;;;20.30;99.90;;;;;;5091469;28;20251;-51
2023/07/04 08:53:58;;;;;;;11.00;3.38;;;20.40;99.90;;;;;;5091418;28;20616;-51
2023/07/04 08:56:34;;;;;;;6.95;2.92;;;20.80;99.90;;;;;;5073291;28;20201;-51
2023/07/04 08:59:23;;;;;;;9.75;2.78;;;20.50;99.90;;;;;;5091721;28;20173;-51
2023/07/04 09:02:15;;;;;;;12.82;3.53;;;20.10;99.90;;;;;;5091810;28;20168;-51
2023/07/04 09:04:58;;;;;;;8.65;2.70;;;20.30;99.90;;;;;;5091342;28;20572;-51
2023/07/04 09:07:45;;;;;;;7.95;3.00;;;20.70;99.90;;;;;;5073105;28;20625;-52
2023/07/04 09:10:29;;;;;;;8.30;3.33;;;21.10;99.90;;;;;;5091092;28;20300;-51
2023/07/04 09:12:55;;;;;;;10.38;3.53;;;21.10;99.90;;;;;;5073249;28;20158;-51
2023/07/04 09:15:28;;;;;;;4.20;2.60;;;21.20;99.90;;;;;;5091227;28;20166;-51
2023/07/04 09:18:03;;;;;;;6.30;2.60;;;20.90;99.90;;;;;;5091097;28;20201;-51
2023/07/04 09:20:38;;;;;;;7.60;3.05;;;20.70;99.90;;;;;;5091222;28;20169;-51
2023/07/04 09:23:19;;;;;;;12.48;3.53;;;21.10;99.90;;;;;;5091204;28;20168;-51
2023/07/04 09:25:45;;;;;;;13.05;3.80;;;21.20;99.90;;;;;;5091537;28;20184;-51
2023/07/04 09:28:11;;;;;;;11.15;3.50;;;21.40;99.90;;;;;;5072903;28;20628;-51
2023/07/04 09:30:37;;;;;;;6.97;2.97;;;21.60;99.90;;;;;;5091040;28;20173;-51
2023/07/04 09:33:03;;;;;;;5.15;2.35;;;21.50;99.90;;;;;;5091303;28;20175;-51
2023/07/04 09:35:31;;;;;;;16.05;4.65;;;21.40;99.90;;;;;;5091192;28;20170;-51
2023/07/04 09:38:01;;;;;;;7.10;3.05;;;21.30;99.90;;;;;;5093253;28;20229;-51
2023/07/04 09:40:52;;;;;;;7.22;2.97;;;21.60;99.90;;;;;;5094697;28;20240;-51
2023/07/04 09:43:30;;;;;;;7.45;3.40;;;21.60;99.90;;;;;;5083086;28;20205;-51
2023/07/04 09:46:17;;;;;;;8.50;3.45;;;21.10;99.90;;;;;;5094482;28;20660;-51
2023/07/04 09:48:43;;;;;;;7.78;3.42;;;21.30;99.90;;;;;;5094415;28;20157;-51
2023/07/04 09:51:16;;;;;;;8.35;3.50;;;21.40;99.90;;;;;;5094413;28;20226;-51
2023/07/04 09:53:41;;;;;;;8.63;3.05;;;21.60;99.90;;;;;;5094476;28;20165;-51
2023/07/04 09:56:07;;;;;;;6.97;2.90;;;21.90;99.90;;;;;;5094394;28;20701;-51
2023/07/04 09:58:34;;;;;;;10.93;3.42;;;21.70;99.90;;;;;;5076071;28;20201;-51
2023/07/04 10:01:15;;;;;;;9.90;3.35;;;21.80;99.90;;;;;;5094284;28;20625;-51
2023/07/04 10:03:42;;;;;;;12.50;3.78;;;21.90;99.90;;;;;;5094286;28;20208;-51
2023/07/04 10:06:09;;;;;;;7.88;3.50;;;21.80;99.90;;;;;;5094269;28;20193;-51
2023/07/04 10:08:53;;;;;;;7.65;3.38;;;22.20;99.90;;;;;;5094127;28;20176;-51
2023/07/04 10:11:37;;;;;;;9.63;3.40;;;21.70;99.90;;;;;;5094305;28;20225;-51
2023/07/04 10:14:08;;;;;;;8.60;3.40;;;21.60;99.90;;;;;;5094098;28;20168;-51
2023/07/04 10:16:35;;;;;;;7.28;3.33;;;21.80;99.90;;;;;;5093879;28;20667;-51
2023/07/04 10:19:13;;;;;;;11.57;4.20;;;22.00;99.90;;;;;;5094003;28;20530;-51
2023/07/04 10:21:46;;;;;;;13.05;4.50;;;22.20;99.90;;;;;;5093914;28;20169;-51
2023/07/04 10:24:24;;;;;;;7.60;3.60;;;22.30;99.90;;;;;;5093823;28;20162;-51
2023/07/04 10:26:54;;;;;;;11.45;4.20;;;22.30;99.90;;;;;;5093599;28;20707;-51
2023/07/04 10:29:32;;;;;;;7.95;3.60;;;22.50;99.90;;;;;;5094192;28;20177;-51
2023/07/04 10:32:11;;;;;;;7.13;3.30;;;22.40;99.90;;;;;;5093719;28;20253;-51
2023/07/04 10:34:38;;;;;;;8.35;4.03;;;22.30;99.90;;;;;;5093681;28;20211;-51
2023/07/04 10:37:05;;;;;;;9.48;3.88;;;21.90;99.90;;;;;;5093492;28;20653;-51
2023/07/04 10:39:34;;;;;;;11.23;3.92;;;22.00;99.90;;;;;;5093537;28;20640;-51
2023/07/04 10:42:10;;;;;;;5.47;3.22;;;22.20;99.90;;;;;;5093545;28;20292;-51
2023/07/04 10:44:37;;;;;;;10.13;3.97;;;22.10;99.90;;;;;;5075990;28;20165;-51
2023/07/04 10:47:13;;;;;;;6.35;3.40;;;22.20;99.90;;;;;;5093424;28;20264;-51
2023/07/04 10:49:54;;;;;;;11.07;4.22;;;22.50;99.90;;;;;;5074604;28;20164;-51
2023/07/04 10:52:31;;;;;;;9.32;4.43;;;22.80;99.90;;;;;;5093275;28;20165;-51
2023/07/04 10:54:58;;;;;;;9.68;4.05;;;22.90;99.90;;;;;;5093253;28;20177;-51
2023/07/04 10:57:37;;;;;;;9.57;3.65;;;22.90;99.90;;;;;;5093074;28;20192;-51
2023/07/04 11:00:14;;;;;;;8.52;4.20;;;22.90;99.90;;;;;;5093369;28;20169;-51
2023/07/04 11:02:47;;;;;;;11.35;4.43;;;23.00;99.90;;;;;;5093304;28;20169;-51
2023/07/04 11:05:18;;;;;;;9.50;3.95;;;22.90;99.90;;;;;;5093006;28;20163;-51
2023/07/04 11:07:44;;;;;;;8.80;3.70;;;23.40;99.90;;;;;;5092994;28;20689;-51
2023/07/04 11:10:12;;;;;;;11.32;4.93;;;23.20;99.90;;;;;;5092777;28;20228;-51
2023/07/04 11:12:41;;;;;;;11.73;4.45;;;22.90;99.90;;;;;;5092868;28;20177;-51
2023/07/04 11:15:21;;;;;;;9.30;3.92;;;23.00;99.90;;;;;;5092846;28;20153;-51
2023/07/04 11:17:49;;;;;;;6.63;3.97;;;23.20;99.90;;;;;;5093069;28;20205;-51
2023/07/04 11:20:18;;;;;;;8.75;4.03;;;23.30;99.90;;;;;;5093196;28;20172;-51
2023/07/04 11:22:50;;;;;;;7.93;4.47;;;22.80;99.90;;;;;;5093005;28;20263;-51
2023/07/04 11:25:43;;;;;;;7.10;4.20;;;23.00;99.90;;;;;;5093326;28;20169;-51
2023/07/04 11:28:26;;;;;;;12.20;4.53;;;22.80;99.90;;;;;;5092572;28;20514;-51
2023/07/04 11:31:13;;;;;;;14.40;4.93;;;22.90;99.90;;;;;;5092800;28;20197;-51
2023/07/04 11:33:42;;;;;;;10.07;4.68;;;23.10;99.90;;;;;;5051076;28;20549;-51
2023/07/04 11:36:35;;;;;;;11.43;5.03;;;23.40;99.90;;;;;;5092700;28;20169;-51
2023/07/04 11:39:05;;;;;;;10.88;4.75;;;23.70;99.90;;;;;;5091514;28;20219;-51
2023/07/04 11:41:35;;;;;;;9.70;4.80;;;23.60;99.90;;;;;;5092660;28;20244;-51
2023/07/04 11:44:28;;;;;;;8.80;4.45;;;23.50;99.90;;;;;;5092410;28;20193;-51
2023/07/04 11:47:06;;;;;;;8.73;5.03;;;23.50;99.90;;;;;;5092181;28;20703;-51
2023/07/04 11:49:34;;;;;;;9.75;4.30;;;23.40;99.90;;;;;;5092130;28;20632;-51
2023/07/04 11:52:25;;;;;;;16.35;5.13;;;23.40;99.90;;;;;;5092169;28;20246;-51
2023/07/04 11:55:04;;;;;;;18.50;4.38;;;23.60;99.90;;;;;;5092053;28;20165;-51
2023/07/04 11:57:55;;;;;;;10.35;4.97;;;23.50;99.90;;;;;;5091909;28;20724;-51
2023/07/04 12:00:33;;;;;;;8.63;4.78;;;23.70;99.90;;;;;;5073181;28;20161;-51
2023/07/04 12:03:20;;;;;;;9.85;4.80;;;23.90;99.90;;;;;;5092412;28;20180;-51
2023/07/04 12:05:55;;;;;;;8.82;4.53;;;24.10;99.90;;;;;;5092314;28;20175;-51
2023/07/04 12:08:41;;;;;;;15.20;5.35;;;24.00;99.90;;;;;;5091921;28;20659;-51
2023/07/04 12:11:11;;;;;;;9.00;4.70;;;24.30;99.90;;;;;;5091817;28;20216;-51
2023/07/04 12:13:39;;;;;;;10.18;5.03;;;24.10;99.90;;;;;;5091836;28;20163;-51
2023/07/04 12:16:05;;;;;;;7.65;4.20;;;24.50;99.90;;;;;;5073688;28;20177;-51
2023/07/04 12:18:39;;;;;;;9.68;5.07;;;24.70;99.90;;;;;;5091784;28;20201;-51
2023/07/04 12:21:06;;;;;;;8.13;4.50;;;24.40;99.90;;;;;;5091822;28;20161;-51
2023/07/04 12:23:32;;;;;;;10.45;5.35;;;24.30;99.90;;;;;;5091673;28;20171;-51
2023/07/04 12:26:01;;;;;;;9.82;4.75;;;24.20;99.90;;;;;;5091880;28;20164;-51
2023/07/04 12:28:29;;;;;;;9.52;5.03;;;24.60;99.90;;;;;;5091803;28;20173;-52
2023/07/04 12:30:58;;;;;;;11.00;5.30;;;24.50;99.90;;;;;;5091687;28;20252;-51
2023/07/04 12:33:25;;;;;;;10.98;5.10;;;24.50;99.90;;;;;;5091702;28;20156;-51
2023/07/04 12:35:57;;;;;;;7.03;4.38;;;24.50;99.90;;;;;;5091710;28;20535;-51
2023/07/04 12:38:24;;;;;;;11.00;5.13;;;24.20;99.90;;;;;;5091549;28;20201;-51
2023/07/04 12:40:51;;;;;;;13.25;5.20;;;24.10;99.90;;;;;;5091617;28;20161;-51
2023/07/04 12:43:17;;;;;;;10.90;5.38;;;24.40;99.90;;;;;;5092015;28;20172;-51
2023/07/04 12:45:43;;;;;;;9.23;4.85;;;24.60;99.90;;;;;;5091462;28;20761;-51
2023/07/04 12:48:10;;;;;;;8.57;4.70;;;24.30;99.90;;;;;;5091630;28;20188;-51
2023/07/04 12:50:47;;;;;;;13.40;5.30;;;24.40;99.80;;;;;;5091486;28;20165;-52